createdAt,value
2019-03-18T00:01:25.889Z,61.82
2019-03-18T00:06:33.410Z,61.67
2019-03-18T00:11:40.341Z,61.17
2019-03-18T00:16:47.803Z,60.93
2019-03-18T00:21:54.437Z,60.15
2019-03-18T00:27:03.191Z,60.06
2019-03-18T00:32:09.711Z,60.06
2019-03-18T00:37:16.096Z,59.67
2019-03-18T00:42:22.489Z,59.16
2019-03-18T00:47:31.766Z,58.89
2019-03-18T00:52:38.098Z,58.25
2019-03-18T00:57:45.049Z,58.47
2019-03-18T01:02:51.854Z,57.92
2019-03-18T01:08:02.537Z,58.92
2019-03-18T01:13:12.603Z,58.23
2019-03-18T01:18:22.985Z,59.15
2019-03-18T01:23:29.096Z,59.47
2019-03-18T01:28:38.861Z,59.93
2019-03-18T01:33:46.110Z,60.45
2019-03-18T01:38:54.123Z,60.71
2019-03-18T01:44:04.557Z,61.58
2019-03-18T01:49:11.832Z,61.58
2019-03-18T01:54:18.231Z,61.07
2019-03-18T01:59:32.959Z,60.85
2019-03-18T02:04:39.103Z,60.70
2019-03-18T02:09:46.093Z,60.48
2019-03-18T02:14:53.004Z,59.87
2019-03-18T02:20:03.781Z,60.40
2019-03-18T02:25:15.362Z,59.41
2019-03-18T02:30:22.421Z,59.75
2019-03-18T02:35:29.240Z,58.82
2019-03-18T02:40:37.326Z,59.00
2019-03-18T02:45:43.835Z,58.70
2019-03-18T02:50:54.658Z,58.70
2019-03-18T02:56:01.515Z,58.27
2019-03-18T03:01:12.081Z,58.19
2019-03-18T03:06:18.225Z,58.38
2019-03-18T03:11:27.644Z,57.77
2019-03-18T03:16:37.924Z,57.20
2019-03-18T03:21:45.649Z,57.11
2019-03-18T03:26:52.546Z,57.18
2019-03-18T03:31:59.918Z,56.66
2019-03-18T03:37:09.333Z,56.41
2019-03-18T03:42:19.388Z,56.67
2019-03-18T03:47:27.017Z,55.39
2019-03-18T03:52:35.906Z,55.41
2019-03-18T03:57:42.270Z,55.11
2019-03-18T04:02:49.913Z,55.82
2019-03-18T04:07:59.821Z,55.83
2019-03-18T04:13:09.168Z,56.50
2019-03-18T04:18:18.319Z,57.51
2019-03-18T04:23:25.900Z,57.51
2019-03-18T04:28:34.509Z,56.83
2019-03-18T04:33:41.672Z,56.83
2019-03-18T04:38:48.230Z,56.16
2019-03-18T04:43:54.911Z,56.06
2019-03-18T04:49:05.141Z,56.15
2019-03-18T04:54:12.672Z,56.97
2019-03-18T04:59:20.220Z,56.41
2019-03-18T05:04:26.615Z,56.29
2019-03-18T05:09:33.549Z,56.95
2019-03-18T05:14:44.266Z,56.88
2019-03-18T05:19:52.332Z,56.82
2019-03-18T05:24:59.637Z,56.94
2019-03-18T05:30:09.623Z,56.28
2019-03-18T05:35:16.919Z,56.28
2019-03-18T05:40:23.836Z,56.40
2019-03-18T05:45:31.716Z,56.24
2019-03-18T05:50:38.918Z,55.83
2019-03-18T05:55:44.933Z,55.87
2019-03-18T06:00:52.858Z,55.78
2019-03-18T06:06:05.024Z,55.06
2019-03-18T06:11:17.929Z,54.75
2019-03-18T06:16:25.701Z,54.68
2019-03-18T06:21:33.845Z,54.51
2019-03-18T06:26:41.015Z,54.50
2019-03-18T06:31:47.959Z,54.32
2019-03-18T06:36:57.323Z,53.52
2019-03-18T06:42:08.128Z,56.21
2019-03-18T06:47:14.781Z,53.09
2019-03-18T06:52:21.700Z,53.21
2019-03-18T06:57:29.257Z,52.88
2019-03-18T07:02:36.240Z,53.57
2019-03-18T07:07:43.168Z,53.69
2019-03-18T07:12:50.419Z,53.20
2019-03-18T07:17:58.238Z,51.55
2019-03-18T07:23:09.112Z,51.62
2019-03-18T07:28:18.107Z,51.54
2019-03-18T07:33:25.218Z,50.71
2019-03-18T07:38:32.143Z,50.50
2019-03-18T07:43:39.462Z,50.57
2019-03-18T07:48:46.758Z,50.41
2019-03-18T07:53:53.710Z,48.83
2019-03-18T07:58:59.988Z,48.57
2019-03-18T08:04:08.236Z,47.29
2019-03-18T08:09:15.440Z,47.99
2019-03-18T09:04:10.455Z,41.77
2019-03-18T09:09:19.346Z,40.99
2019-03-18T09:14:26.378Z,40.71
2019-03-18T09:19:34.941Z,39.68
2019-03-18T09:24:44.024Z,39.44
2019-03-18T09:29:59.052Z,41.26
2019-03-18T09:35:10.021Z,42.20
2019-03-18T09:40:25.768Z,44.65
2019-03-18T09:45:33.717Z,44.65
2019-03-18T09:50:43.067Z,44.60
2019-03-18T09:55:50.236Z,45.91
2019-03-18T10:00:56.319Z,46.01
2019-03-18T10:06:07.980Z,46.12
2019-03-18T10:11:18.931Z,46.55
2019-03-18T10:16:35.375Z,46.62
2019-03-18T10:21:47.383Z,46.01
2019-03-18T10:26:52.976Z,46.15
2019-03-18T10:32:02.200Z,45.92
2019-03-18T10:37:10.691Z,46.67
2019-03-18T10:42:19.920Z,45.81
2019-03-18T10:47:33.901Z,45.20
2019-03-18T10:52:41.323Z,43.41
2019-03-18T10:57:51.033Z,41.82
2019-03-18T11:03:05.096Z,42.03
2019-03-18T11:08:09.882Z,43.11
2019-03-18T11:13:23.155Z,44.61
2019-03-18T11:18:32.368Z,45.53
2019-03-18T11:23:42.556Z,45.37
2019-03-18T11:28:48.801Z,45.16
2019-03-18T11:34:05.271Z,44.11
2019-03-18T11:39:10.790Z,42.68
2019-03-18T11:44:21.388Z,43.13
2019-03-18T11:49:39.574Z,44.03
2019-03-18T11:54:40.880Z,44.15
2019-03-18T11:59:49.168Z,43.52
2019-03-18T12:04:57.548Z,41.71
2019-03-18T12:10:04.963Z,41.82
2019-03-18T12:15:15.781Z,41.83
2019-03-18T12:20:25.507Z,42.72
2019-03-18T12:25:33.558Z,43.24
2019-03-18T12:30:40.645Z,48.04
2019-03-18T12:35:47.646Z,50.40
2019-03-18T12:40:54.196Z,51.83
2019-03-18T12:46:04.195Z,51.58
2019-03-18T12:51:11.604Z,48.95
2019-03-18T12:56:18.959Z,48.75
2019-03-18T13:01:25.725Z,46.94
2019-03-18T13:06:35.439Z,45.51
2019-03-18T13:11:42.688Z,46.22
2019-03-18T13:16:48.792Z,44.68
2019-03-18T13:22:00.177Z,44.08
2019-03-18T13:27:08.927Z,41.92
2019-03-18T13:32:16.391Z,47.43
2019-03-18T13:37:30.468Z,54.31
2019-03-18T13:42:34.819Z,61.20
2019-03-18T13:47:47.991Z,60.55
2019-03-18T13:52:52.148Z,58.66
2019-03-18T13:57:58.548Z,58.09
2019-03-18T14:03:07.688Z,58.68
2019-03-18T14:08:14.905Z,57.19
2019-03-18T14:13:25.557Z,54.34
2019-03-18T14:18:32.480Z,54.73
2019-03-18T14:23:43.818Z,52.77
2019-03-18T14:28:52.653Z,50.83
2019-03-18T14:34:00.077Z,52.70
2019-03-18T14:39:08.642Z,58.16
2019-03-18T14:44:21.040Z,59.16
2019-03-18T14:49:29.553Z,60.75
2019-03-18T14:54:37.182Z,58.91
2019-03-18T14:59:47.346Z,55.18
2019-03-18T15:04:54.032Z,52.83
2019-03-18T15:10:00.447Z,53.01
2019-03-18T15:15:11.528Z,52.80
2019-03-18T15:20:23.914Z,53.17
2019-03-18T15:25:43.151Z,52.70
2019-03-18T15:30:56.126Z,53.82
2019-03-18T15:36:09.931Z,53.82
2019-03-18T15:41:26.521Z,53.34
2019-03-18T15:46:29.911Z,53.84
2019-03-18T15:51:40.983Z,53.33
2019-03-18T15:56:48.637Z,53.37
2019-03-18T16:01:56.344Z,53.22
2019-03-18T16:07:13.624Z,54.22
2019-03-18T16:12:23.448Z,54.72
2019-03-18T16:17:31.593Z,55.12
2019-03-18T16:22:39.776Z,55.62
2019-03-18T16:27:46.781Z,55.83
2019-03-18T16:33:05.979Z,56.17
2019-03-18T16:38:12.027Z,56.56
2019-03-18T16:43:20.049Z,55.14
2019-03-18T16:48:28.917Z,54.58
2019-03-18T16:53:39.269Z,53.73
2019-03-18T16:58:48.102Z,52.88
2019-03-18T17:03:58.211Z,53.01
2019-03-18T17:09:09.282Z,50.41
2019-03-18T17:14:26.122Z,49.71
2019-03-18T17:19:36.011Z,49.52
2019-03-18T17:24:44.534Z,49.92
2019-03-18T17:29:52.042Z,49.37
2019-03-18T17:35:01.542Z,49.64
2019-03-18T17:40:18.275Z,49.80
2019-03-18T17:45:24.937Z,50.48
2019-03-18T17:50:32.157Z,51.31
2019-03-18T17:55:46.341Z,51.93
2019-03-18T18:01:10.581Z,52.66
2019-03-18T18:06:19.624Z,52.93
2019-03-18T18:11:26.242Z,53.76
2019-03-18T18:21:49.134Z,53.99
2019-03-18T18:26:57.287Z,54.42
2019-03-18T18:32:05.604Z,54.28
2019-03-18T18:37:18.713Z,54.65
2019-03-18T18:42:26.421Z,54.68
2019-03-18T18:47:34.373Z,55.50
2019-03-18T18:52:48.746Z,55.46
2019-03-18T18:58:06.857Z,55.46
2019-03-18T19:03:17.697Z,55.76
2019-03-18T19:08:30.994Z,55.82
2019-03-18T19:13:37.698Z,56.29
2019-03-18T19:18:52.023Z,55.83
2019-03-18T19:24:00.972Z,56.29
2019-03-18T19:29:09.452Z,55.85
2019-03-18T19:34:22.582Z,55.85
2019-03-18T19:39:35.223Z,56.21
2019-03-18T19:44:45.591Z,55.99
2019-03-18T19:49:59.983Z,56.23
2019-03-18T20:01:24.262Z,56.30
2019-03-18T20:06:32.350Z,55.80
2019-03-18T20:11:44.914Z,55.77
2019-03-18T20:16:57.781Z,55.62
2019-03-18T20:22:04.281Z,55.43
2019-03-18T20:27:13.879Z,56.15
2019-03-18T20:32:24.104Z,56.13
2019-03-18T20:37:36.909Z,55.86
2019-03-18T20:42:45.167Z,55.86
2019-03-18T20:47:53.131Z,55.06
2019-03-18T20:53:03.920Z,55.06
2019-03-18T20:58:13.165Z,54.80
2019-03-18T21:03:20.457Z,54.14
2019-03-18T21:08:32.146Z,54.62
2019-03-18T21:13:44.924Z,54.62
2019-03-18T21:18:56.064Z,54.33
2019-03-18T21:24:03.962Z,53.93
2019-03-18T21:29:10.520Z,54.10
2019-03-18T21:34:16.699Z,53.83
2019-03-18T21:39:25.680Z,54.02
2019-03-18T21:44:34.835Z,54.03
2019-03-18T21:49:51.631Z,54.26
2019-03-18T21:55:25.721Z,54.26
2019-03-18T22:00:33.277Z,54.99
2019-03-18T22:05:40.532Z,54.77
2019-03-18T22:10:52.663Z,54.69
2019-03-18T22:16:02.852Z,53.83
2019-03-18T22:21:09.930Z,54.59
2019-03-18T22:26:19.791Z,54.59
2019-03-18T22:31:27.846Z,54.97
2019-03-18T22:36:36.095Z,55.42
2019-03-18T22:41:45.252Z,55.42
2019-03-18T22:46:52.615Z,55.80
2019-03-18T22:51:59.094Z,56.76
2019-03-18T22:57:05.274Z,56.54
2019-03-18T23:02:13.354Z,56.63
2019-03-18T23:07:19.484Z,57.25
2019-03-18T23:12:28.335Z,57.24
2019-03-18T23:17:38.941Z,57.34
2019-03-18T23:22:46.331Z,57.77
2019-03-18T23:27:53.380Z,56.98
2019-03-18T23:33:00.150Z,56.83
2019-03-18T23:38:07.244Z,57.14
2019-03-18T23:43:15.186Z,57.14
2019-03-18T23:48:47.409Z,57.02
2019-03-18T23:53:57.561Z,56.72
2019-03-18T23:59:08.313Z,56.72
